Time;durP1;ratioP1;P1;durP2;ratioP2;P2;SDS_P1;SDS_P2;PMS_P1;PMS_P2;Temp;Humidity;BMP_temperature;BMP_pressure;BME280_temperature;BME280_humidity;BME280_pressure;Samples;Min_cycle;Max_cycle;Signal;HPM_P1;HPM_P2
2023/05/26 00:00:42;;;;;;;15.75;10.43;;;12.50;99.90;;;;;;5104695;28;20043;-58
2023/05/26 00:03:09;;;;;;;13.95;9.63;;;12.50;99.90;;;;;;5099899;28;20040;-57
2023/05/26 00:05:40;;;;;;;15.63;9.68;;;12.40;99.90;;;;;;5103708;28;20109;-54
2023/05/26 00:08:07;;;;;;;15.57;9.65;;;12.40;99.90;;;;;;5102159;28;20031;-53
2023/05/26 00:10:35;;;;;;;;;;;12.40;99.90;;;;;;5096025;28;20032;-56
2023/05/26 00:13:01;;;;;;;15.00;9.73;;;12.50;99.90;;;;;;5102791;28;20382;-55
2023/05/26 00:15:28;;;;;;;13.50;8.93;;;12.50;99.90;;;;;;5101333;28;20498;-56
2023/05/26 00:17:57;;;;;;;12.82;9.50;;;12.50;99.90;;;;;;5103737;28;20056;-57
2023/05/26 00:20:25;;;;;;;12.48;8.75;;;12.50;99.90;;;;;;5105334;28;20491;-55
2023/05/26 00:22:52;;;;;;;13.50;9.13;;;12.50;99.90;;;;;;5081015;28;20798;-56
2023/05/26 00:25:20;;;;;;;12.55;8.55;;;12.50;99.90;;;;;;5102323;28;20436;-57
2023/05/26 00:27:47;;;;;;;15.27;10.05;;;12.40;99.90;;;;;;5102984;28;20047;-55
2023/05/26 00:30:13;;;;;;;17.02;9.48;;;12.40;99.90;;;;;;5085018;28;20098;-55
2023/05/26 00:32:42;;;;;;;16.27;9.40;;;12.40;99.90;;;;;;5089957;28;20059;-54
2023/05/26 00:35:09;;;;;;;14.25;10.15;;;12.40;99.90;;;;;;5105701;28;20035;-54
2023/05/26 00:37:37;;;;;;;13.52;8.95;;;12.40;99.90;;;;;;5094901;28;20042;-57
2023/05/26 00:40:04;;;;;;;14.15;9.25;;;12.40;99.90;;;;;;5102796;28;20173;-57
2023/05/26 00:42:31;;;;;;;;;;;12.30;99.90;;;;;;5103749;28;20036;-57
2023/05/26 00:44:57;;;;;;;16.63;9.48;;;12.30;99.90;;;;;;5088338;28;19943;-57
2023/05/26 00:47:24;;;;;;;14.63;9.25;;;12.30;99.90;;;;;;5110507;28;20053;-58
2023/05/26 00:49:51;;;;;;;14.27;9.50;;;12.20;99.90;;;;;;5084858;28;20682;-56
2023/05/26 00:52:20;;;;;;;16.90;9.02;;;12.10;99.90;;;;;;5082738;28;20473;-55
2023/05/26 00:54:48;;;;;;;16.52;9.70;;;12.10;99.90;;;;;;5081252;28;20036;-57
2023/05/26 00:57:15;;;;;;;15.40;9.93;;;12.00;99.90;;;;;;5103717;28;20044;-56
2023/05/26 00:59:42;;;;;;;16.13;9.23;;;12.00;99.90;;;;;;5101578;28;20044;-56
2023/05/26 01:02:12;;;;;;;14.68;9.40;;;12.00;99.90;;;;;;5102722;28;20062;-56
2023/05/26 01:04:40;;;;;;;16.33;9.82;;;11.90;99.90;;;;;;5075839;28;20534;-53
2023/05/26 01:07:09;;;;;;;17.80;10.52;;;11.90;99.90;;;;;;5081041;28;20040;-57
2023/05/26 01:09:36;;;;;;;17.33;9.77;;;11.90;99.90;;;;;;5097500;28;20028;-57
2023/05/26 01:12:09;;;;;;;23.58;10.27;;;11.90;99.90;;;;;;5101383;28;20058;-56
2023/05/26 01:15:01;;;;;;;17.40;10.50;;;11.90;99.90;;;;;;5105184;28;20035;-57
2023/05/26 01:17:36;;;;;;;16.27;9.60;;;11.80;99.90;;;;;;5099455;28;20408;-58
2023/05/26 01:20:23;;;;;;;15.13;10.07;;;11.80;99.90;;;;;;5101838;28;20044;-55
2023/05/26 01:23:05;;;;;;;15.75;9.40;;;11.70;99.90;;;;;;5101709;28;20075;-54
2023/05/26 01:25:41;;;;;;;16.85;9.63;;;11.80;99.90;;;;;;5094193;28;20048;-54
2023/05/26 01:28:14;;;;;;;12.70;9.40;;;11.80;99.90;;;;;;5097323;28;20044;-56
2023/05/26 01:30:43;;;;;;;15.65;10.05;;;11.80;99.90;;;;;;5102086;28;20479;-56
2023/05/26 01:33:10;;;;;;;13.85;9.00;;;11.90;99.90;;;;;;5102188;28;20036;-58
2023/05/26 01:35:37;;;;;;;13.82;9.18;;;11.90;99.90;;;;;;5090631;28;20044;-58
2023/05/26 01:38:05;;;;;;;20.30;9.43;;;11.90;99.90;;;;;;5098263;28;20199;-58
2023/05/26 01:40:32;;;;;;;15.48;9.57;;;11.90;99.90;;;;;;5100872;28;20063;-57
2023/05/26 01:43:11;;;;;;;;;;;11.90;99.90;;;;;;5075914;28;20051;-56
2023/05/26 01:45:44;;;;;;;24.10;10.23;;;11.80;99.90;;;;;;5078487;28;19920;-57
2023/05/26 01:48:12;;;;;;;17.00;9.85;;;11.80;99.90;;;;;;5086106;28;20306;-54
2023/05/26 01:50:47;;;;;;;17.02;9.77;;;11.70;99.90;;;;;;5097547;28;20058;-57
2023/05/26 01:53:16;;;;;;;13.88;9.65;;;11.60;99.90;;;;;;5085248;28;20471;-55
2023/05/26 01:55:45;;;;;;;15.90;9.25;;;11.50;99.90;;;;;;5091764;28;20044;-57
2023/05/26 01:58:15;;;;;;;16.75;9.40;;;11.40;99.90;;;;;;5071622;28;20040;-53
2023/05/26 02:00:46;;;;;;;17.23;10.90;;;11.30;99.90;;;;;;5093550;28;20065;-56
2023/05/26 02:03:15;;;;;;;18.13;10.60;;;11.30;99.90;;;;;;5095026;28;20040;-58
2023/05/26 02:05:42;;;;;;;16.30;10.68;;;11.30;99.90;;;;;;5091278;28;20079;-58
2023/05/26 02:08:10;;;;;;;15.77;10.88;;;11.30;99.90;;;;;;5092323;28;20485;-56
2023/05/26 02:10:38;;;;;;;19.67;10.70;;;11.30;99.90;;;;;;5085737;28;20417;-54
2023/05/26 02:13:06;;;;;;;15.32;9.93;;;11.30;99.90;;;;;;5097573;28;20403;-57
2023/05/26 02:15:33;;;;;;;13.77;10.27;;;11.30;99.90;;;;;;5091646;28;20135;-56
2023/05/26 02:18:02;;;;;;;17.33;10.27;;;11.40;99.90;;;;;;5101692;28;20067;-57
2023/05/26 02:20:30;;;;;;;15.40;10.23;;;11.40;99.90;;;;;;5088927;28;20079;-56
2023/05/26 02:22:57;;;;;;;17.98;10.75;;;11.50;99.90;;;;;;5088603;28;20055;-58
2023/05/26 02:25:24;;;;;;;19.05;9.73;;;11.50;99.90;;;;;;5087992;28;20081;-57
2023/05/26 02:27:51;;;;;;;15.32;10.27;;;11.50;99.90;;;;;;5092801;28;20056;-58
2023/05/26 02:30:18;;;;;;;16.30;9.90;;;11.50;99.90;;;;;;5100918;28;20082;-57
2023/05/26 02:32:45;;;;;;;15.45;9.68;;;11.50;99.90;;;;;;5100093;28;20111;-57
2023/05/26 02:35:12;;;;;;;13.60;9.45;;;11.50;99.90;;;;;;5082069;28;20044;-56
2023/05/26 02:37:41;;;;;;;14.57;10.18;;;11.50;99.90;;;;;;5096898;28;20071;-54
2023/05/26 02:40:09;;;;;;;14.77;9.68;;;11.50;99.90;;;;;;5081695;28;20059;-56
2023/05/26 02:42:35;;;;;;;;;;;11.40;99.90;;;;;;5100691;28;20064;-57
2023/05/26 02:45:03;;;;;;;17.48;9.73;;;11.30;99.90;;;;;;5082985;28;19927;-57
2023/05/26 02:47:30;;;;;;;15.45;9.57;;;11.30;99.90;;;;;;5085848;28;20051;-58
2023/05/26 02:49:56;;;;;;;19.00;10.05;;;11.30;99.90;;;;;;5104377;28;20047;-56
2023/05/26 02:52:23;;;;;;;14.55;10.23;;;11.30;99.90;;;;;;5102772;28;20122;-58
2023/05/26 02:54:50;;;;;;;15.75;10.40;;;11.30;99.90;;;;;;5078867;28;20459;-55
2023/05/26 02:57:17;;;;;;;15.63;10.25;;;11.30;99.90;;;;;;5081950;28;20123;-55
2023/05/26 02:59:44;;;;;;;17.17;10.13;;;11.30;99.90;;;;;;5104643;28;20046;-58
2023/05/26 03:02:11;;;;;;;11.32;8.05;;;11.30;99.90;;;;;;5088870;28;20062;-57
2023/05/26 03:04:38;;;;;;;19.60;10.57;;;11.20;99.90;;;;;;5102525;28;20688;-55
2023/05/26 03:07:07;;;;;;;21.15;10.48;;;11.10;99.90;;;;;;5078661;28;20168;-55
2023/05/26 03:09:36;;;;;;;17.77;10.13;;;11.00;99.90;;;;;;5084636;28;20221;-53
2023/05/26 03:12:06;;;;;;;18.98;10.45;;;11.10;99.90;;;;;;5087732;28;20575;-57
2023/05/26 03:14:34;;;;;;;16.27;10.15;;;11.10;99.90;;;;;;5080577;28;20040;-55
2023/05/26 03:17:01;;;;;;;16.10;10.70;;;11.00;99.90;;;;;;5087580;28;20039;-57
2023/05/26 03:19:28;;;;;;;17.40;10.70;;;11.00;99.90;;;;;;5090494;28;20048;-57
2023/05/26 03:21:56;;;;;;;17.70;10.18;;;11.00;99.90;;;;;;5073177;28;20400;-57
2023/05/26 03:24:43;;;;;;;16.10;10.52;;;11.00;99.90;;;;;;5081812;28;20036;-57
2023/05/26 03:27:11;;;;;;;20.02;11.10;;;11.00;99.90;;;;;;5089031;28;20060;-57
2023/05/26 03:29:37;;;;;;;18.58;10.60;;;11.00;99.90;;;;;;5059909;28;20040;-57
2023/05/26 03:32:07;;;;;;;18.73;10.98;;;11.00;99.90;;;;;;5089757;28;20076;-56
2023/05/26 03:34:39;;;;;;;19.40;10.95;;;11.00;99.90;;;;;;5102303;28;20051;-57
2023/05/26 03:37:06;;;;;;;18.45;11.10;;;11.00;99.90;;;;;;5089338;28;20050;-57
2023/05/26 03:39:34;;;;;;;18.30;10.85;;;11.10;99.90;;;;;;5090906;28;20071;-57
2023/05/26 03:42:01;;;;;;;18.55;10.65;;;11.10;99.90;;;;;;5083595;28;20491;-58
2023/05/26 03:44:31;;;;;;;17.90;11.27;;;11.10;99.90;;;;;;5082041;28;20044;-58
2023/05/26 03:46:58;;;;;;;;;;;11.10;99.90;;;;;;5097505;28;20028;-57
2023/05/26 03:49:25;;;;;;;17.20;10.32;;;11.10;99.90;;;;;;5109725;28;20025;-55
2023/05/26 03:51:54;;;;;;;15.07;9.98;;;11.10;99.90;;;;;;5085901;28;20119;-56
2023/05/26 03:54:20;;;;;;;13.85;9.80;;;11.10;99.90;;;;;;5094628;28;20044;-58
2023/05/26 03:56:47;;;;;;;16.38;10.55;;;11.20;99.90;;;;;;5084857;28;20090;-58
2023/05/26 03:59:19;;;;;;;16.65;10.60;;;11.20;99.90;;;;;;5090000;28;20389;-55
2023/05/26 04:01:46;;;;;;;20.67;10.70;;;11.20;99.90;;;;;;5077234;28;20071;-57
2023/05/26 04:04:14;;;;;;;16.83;10.93;;;11.20;99.90;;;;;;5079955;28;20044;-57
2023/05/26 04:06:41;;;;;;;17.38;10.75;;;11.20;99.90;;;;;;5085166;28;20044;-57
2023/05/26 04:09:09;;;;;;;17.77;10.48;;;11.20;99.90;;;;;;5094502;28;20036;-57
2023/05/26 04:11:36;;;;;;;16.13;10.88;;;11.30;99.90;;;;;;5087791;28;20508;-57
2023/05/26 04:14:03;;;;;;;16.40;10.55;;;11.30;99.90;;;;;;5088745;28;20134;-54
2023/05/26 04:16:30;;;;;;;14.07;9.85;;;11.30;99.90;;;;;;5078261;28;20058;-57
2023/05/26 04:18:57;;;;;;;17.80;10.88;;;11.40;99.90;;;;;;5093014;28;20488;-56
2023/05/26 04:21:27;;;;;;;16.45;10.57;;;11.40;99.90;;;;;;5076711;28;20044;-54
2023/05/26 04:23:53;;;;;;;17.55;10.55;;;11.50;99.90;;;;;;5080920;28;20044;-57
2023/05/26 04:26:24;;;;;;;15.60;9.95;;;11.60;99.90;;;;;;5087158;28;20036;-57
2023/05/26 04:29:10;;;;;;;17.35;10.27;;;11.50;99.90;;;;;;5076495;28;20046;-58
2023/05/26 04:32:00;;;;;;;16.77;9.57;;;11.60;99.90;;;;;;5070689;28;20124;-58
2023/05/26 04:34:40;;;;;;;12.85;9.07;;;11.70;99.90;;;;;;5096348;28;20050;-57
2023/05/26 04:37:15;;;;;;;13.60;8.52;;;11.70;99.90;;;;;;5091413;28;20123;-55
2023/05/26 04:39:41;;;;;;;14.88;9.50;;;11.70;99.90;;;;;;5089003;28;20047;-58
2023/05/26 04:42:09;;;;;;;15.30;9.25;;;11.80;99.90;;;;;;5085927;28;20097;-56
2023/05/26 04:44:40;;;;;;;12.20;9.15;;;11.90;99.90;;;;;;5087255;28;20543;-54
2023/05/26 04:47:08;;;;;;;15.07;9.63;;;11.90;99.90;;;;;;5089861;28;20032;-56
2023/05/26 04:49:36;;;;;;;12.98;9.32;;;12.00;99.90;;;;;;5085069;28;20408;-55
2023/05/26 04:52:04;;;;;;;17.10;9.85;;;12.00;99.90;;;;;;5087233;28;20043;-57
2023/05/26 04:54:34;;;;;;;14.65;9.93;;;12.20;99.90;;;;;;5089525;28;20044;-56
2023/05/26 04:57:01;;;;;;;14.25;10.63;;;12.10;99.90;;;;;;5103120;28;20070;-57
2023/05/26 04:59:45;;;;;;;13.57;9.70;;;12.20;99.90;;;;;;5085443;28;20134;-57
2023/05/26 05:02:15;;;;;;;14.35;10.05;;;12.20;99.90;;;;;;5079305;28;20040;-58
2023/05/26 05:04:52;;;;;;;12.70;9.07;;;12.30;99.90;;;;;;5084693;28;20392;-58
2023/05/26 05:07:19;;;;;;;14.45;10.00;;;12.30;99.90;;;;;;5087918;28;20052;-58
2023/05/26 05:09:45;;;;;;;15.90;10.05;;;12.40;99.90;;;;;;5101881;28;20114;-58
2023/05/26 05:12:12;;;;;;;14.45;9.85;;;12.40;99.90;;;;;;5083896;28;20048;-58
2023/05/26 05:14:40;;;;;;;20.15;10.10;;;12.40;99.90;;;;;;5093650;28;20354;-55
2023/05/26 05:17:07;;;;;;;;;;;12.50;99.90;;;;;;5081869;28;20040;-57
2023/05/26 05:19:33;;;;;;;14.85;9.35;;;12.60;99.90;;;;;;5080764;28;19927;-57
2023/05/26 05:22:00;;;;;;;15.73;10.20;;;12.80;99.90;;;;;;5074743;28;20051;-58
2023/05/26 05:24:27;;;;;;;16.77;9.52;;;12.90;99.90;;;;;;5089845;28;20040;-58
2023/05/26 05:26:54;;;;;;;17.92;10.93;;;13.00;99.90;;;;;;5103289;28;20032;-54
2023/05/26 05:29:23;;;;;;;17.13;10.85;;;13.10;99.90;;;;;;5089577;28;20040;-56
2023/05/26 05:31:53;;;;;;;18.05;11.05;;;13.10;99.90;;;;;;5090043;28;20127;-57
2023/05/26 05:34:20;;;;;;;17.38;10.98;;;13.20;99.90;;;;;;5087339;28;20040;-55
2023/05/26 05:36:47;;;;;;;14.43;9.85;;;13.30;99.90;;;;;;5089183;28;20047;-57
2023/05/26 05:39:14;;;;;;;16.63;10.88;;;13.40;99.90;;;;;;5075141;28;20134;-57
2023/05/26 05:41:41;;;;;;;14.60;9.77;;;13.50;99.90;;;;;;5083598;28;20043;-56
2023/05/26 05:44:07;;;;;;;14.63;9.77;;;13.50;99.90;;;;;;5080895;28;20488;-54
2023/05/26 05:46:34;;;;;;;16.83;11.05;;;13.60;99.90;;;;;;5109985;28;20114;-58
2023/05/26 05:49:15;;;;;;;22.08;11.60;;;13.70;99.90;;;;;;5093886;28;20438;-57
2023/05/26 05:51:45;;;;;;;17.38;11.93;;;13.80;99.90;;;;;;5078012;28;20078;-58
2023/05/26 05:54:12;;;;;;;15.05;10.85;;;13.90;99.90;;;;;;5088950;28;20412;-59
2023/05/26 05:56:39;;;;;;;16.38;11.63;;;13.90;99.90;;;;;;5109018;27;20035;-58
2023/05/26 05:59:10;;;;;;;18.45;11.07;;;13.90;99.90;;;;;;5082703;28;20131;-58
2023/05/26 06:01:37;;;;;;;20.58;11.63;;;13.90;99.90;;;;;;5088472;28;20047;-58
2023/05/26 06:04:04;;;;;;;21.88;11.57;;;13.90;99.90;;;;;;5111942;28;20126;-58
2023/05/26 06:06:32;;;;;;;16.70;10.93;;;14.00;99.90;;;;;;5093338;28;20044;-57
2023/05/26 06:08:58;;;;;;;19.88;11.25;;;14.00;99.90;;;;;;5082802;28;20400;-58
2023/05/26 06:11:26;;;;;;;16.92;11.20;;;14.10;99.90;;;;;;5084558;28;20082;-60
2023/05/26 06:13:53;;;;;;;19.98;11.57;;;14.20;99.90;;;;;;5090781;28;20036;-57
2023/05/26 06:16:20;;;;;;;16.25;10.63;;;14.20;99.90;;;;;;5088548;28;20044;-56
2023/05/26 06:18:47;;;;;;;19.17;11.38;;;14.30;99.90;;;;;;5081242;28;20048;-55
2023/05/26 06:21:13;;;;;;;14.80;11.10;;;14.30;99.90;;;;;;5077281;28;20040;-54
2023/05/26 06:23:45;;;;;;;17.65;11.38;;;14.30;99.90;;;;;;5092798;28;20049;-55
2023/05/26 06:26:11;;;;;;;18.60;12.85;;;14.40;99.90;;;;;;5103229;28;20040;-57
2023/05/26 06:28:38;;;;;;;18.30;11.55;;;14.50;99.90;;;;;;5075466;28;20134;-57
2023/05/26 06:31:06;;;;;;;17.80;12.02;;;14.60;99.90;;;;;;5082079;28;20036;-58
2023/05/26 06:33:39;;;;;;;20.70;11.98;;;14.70;99.90;;;;;;5089399;28;20078;-56
2023/05/26 06:36:07;;;;;;;18.90;12.13;;;14.80;99.90;;;;;;5073877;28;20044;-58
2023/05/26 06:38:34;;;;;;;17.83;12.70;;;14.90;99.90;;;;;;5082057;28;20048;-56
2023/05/26 06:41:06;;;;;;;22.33;12.90;;;15.10;99.90;;;;;;5090621;28;20054;-59
2023/05/26 06:43:34;;;;;;;19.67;12.82;;;15.20;99.90;;;;;;5091231;28;20055;-57
2023/05/26 06:46:03;;;;;;;16.58;10.93;;;15.40;99.90;;;;;;5092696;28;20118;-58
2023/05/26 06:48:31;;;;;;;;;;;15.50;99.90;;;;;;5085668;28;20407;-57
2023/05/26 06:51:14;;;;;;;20.08;12.32;;;15.50;99.90;;;;;;5087270;28;20392;-58
2023/05/26 06:53:41;;;;;;;21.13;13.10;;;15.60;99.90;;;;;;5083225;28;20040;-55
2023/05/26 06:56:08;;;;;;;23.48;13.85;;;15.70;99.90;;;;;;5083647;28;20081;-56
2023/05/26 06:58:36;;;;;;;21.67;13.65;;;15.80;99.90;;;;;;5109686;28;20415;-56
2023/05/26 07:01:03;;;;;;;17.80;12.48;;;16.00;99.90;;;;;;5111512;28;20046;-57
2023/05/26 07:03:33;;;;;;;23.13;12.52;;;16.00;99.90;;;;;;5090606;28;20050;-56
2023/05/26 07:06:02;;;;;;;19.77;13.10;;;16.10;99.90;;;;;;5093377;28;20035;-57
2023/05/26 07:08:32;;;;;;;19.88;12.15;;;16.10;99.90;;;;;;5083305;28;20044;-57
2023/05/26 07:11:18;;;;;;;22.58;12.38;;;16.20;99.90;;;;;;5091829;28;20055;-56
2023/05/26 07:13:51;;;;;;;21.27;11.52;;;16.30;99.90;;;;;;5078994;28;20071;-56
2023/05/26 07:16:19;;;;;;;21.23;12.35;;;16.50;99.90;;;;;;5073176;28;20048;-58
2023/05/26 07:18:46;;;;;;;15.48;11.68;;;16.60;99.90;;;;;;5101079;28;20069;-55
2023/05/26 07:21:15;;;;;;;21.27;12.75;;;16.90;99.90;;;;;;5092102;28;20504;-58
2023/05/26 07:23:43;;;;;;;16.67;12.27;;;17.00;99.90;;;;;;5082574;28;20516;-57
2023/05/26 07:26:10;;;;;;;18.75;11.07;;;17.10;99.90;;;;;;5084085;28;20040;-55
2023/05/26 07:28:37;;;;;;;18.90;13.10;;;17.20;99.90;;;;;;5092387;28;20036;-58
2023/05/26 07:31:04;;;;;;;23.55;14.35;;;17.20;99.90;;;;;;5098799;28;20048;-58
2023/05/26 07:33:34;;;;;;;23.30;15.10;;;17.20;99.90;;;;;;5073310;28;20101;-56
2023/05/26 07:36:01;;;;;;;23.35;14.90;;;17.30;99.90;;;;;;5092355;28;20040;-57
2023/05/26 07:38:28;;;;;;;20.98;14.80;;;17.30;99.90;;;;;;5085296;28;20337;-56
2023/05/26 07:40:55;;;;;;;24.60;15.45;;;17.30;99.90;;;;;;5090837;28;20447;-56
2023/05/26 07:43:21;;;;;;;27.50;14.85;;;17.40;99.90;;;;;;5098154;28;20404;-57
2023/05/26 07:45:48;;;;;;;21.83;14.57;;;17.60;99.90;;;;;;5102259;28;20043;-59
2023/05/26 07:48:15;;;;;;;;;;;17.60;99.90;;;;;;5111647;28;20047;-57
2023/05/26 07:50:44;;;;;;;20.73;14.07;;;17.50;99.90;;;;;;5102839;28;19927;-56
2023/05/26 07:53:11;;;;;;;25.15;17.00;;;17.60;99.90;;;;;;5091146;28;20086;-56
2023/05/26 07:55:38;;;;;;;23.83;15.00;;;17.70;99.90;;;;;;5099204;28;20051;-58
2023/05/26 07:58:05;;;;;;;25.88;15.77;;;17.80;99.90;;;;;;5102899;28;20047;-56
2023/05/26 08:00:32;;;;;;;26.73;14.63;;;17.90;99.90;;;;;;5097619;28;20051;-54
2023/05/26 08:02:58;;;;;;;21.08;13.82;;;18.00;99.90;;;;;;5107689;28;20040;-58
2023/05/26 08:05:26;;;;;;;22.73;15.85;;;18.10;99.90;;;;;;5103934;28;20050;-57
2023/05/26 08:07:53;;;;;;;24.00;14.82;;;18.20;99.90;;;;;;5090765;28;20036;-56
2023/05/26 08:10:20;;;;;;;26.35;15.65;;;18.30;99.90;;;;;;5105117;28;20046;-58
2023/05/26 08:12:47;;;;;;;;;;;18.40;99.90;;;;;;5102816;28;20040;-58
2023/05/26 08:15:15;;;;;;;20.50;15.02;;;18.60;99.90;;;;;;5095944;28;19928;-58
2023/05/26 08:17:46;;;;;;;26.35;15.70;;;18.70;99.90;;;;;;5092446;28;20067;-56
2023/05/26 08:20:13;;;;;;;23.08;15.10;;;18.80;99.90;;;;;;5102448;28;20070;-58
2023/05/26 08:22:40;;;;;;;21.08;14.13;;;18.90;99.90;;;;;;5108111;28;20048;-57
2023/05/26 08:25:07;;;;;;;21.77;13.75;;;19.00;99.90;;;;;;5110851;28;20036;-58
2023/05/26 08:27:34;;;;;;;20.60;13.23;;;19.00;99.90;;;;;;5101699;28;20040;-58
2023/05/26 08:30:01;;;;;;;19.83;14.25;;;19.20;99.90;;;;;;5095515;28;20036;-55
2023/05/26 08:32:28;;;;;;;20.63;12.95;;;19.20;99.90;;;;;;5097990;28;20040;-57
2023/05/26 08:34:54;;;;;;;18.90;13.65;;;19.40;99.90;;;;;;5101415;28;20106;-56
2023/05/26 08:37:21;;;;;;;20.33;12.18;;;19.60;99.90;;;;;;5102329;28;20044;-58
2023/05/26 08:39:48;;;;;;;17.95;12.52;;;19.80;99.90;;;;;;5096261;28;20508;-55
2023/05/26 08:42:19;;;;;;;20.67;13.15;;;19.90;99.90;;;;;;5096016;28;20039;-58
2023/05/26 08:44:59;;;;;;;20.02;12.93;;;19.90;99.90;;;;;;5109770;28;20068;-57
2023/05/26 08:47:27;;;;;;;19.50;12.85;;;20.00;99.90;;;;;;5094166;28;20119;-58
2023/05/26 08:50:00;;;;;;;20.63;12.30;;;20.00;99.90;;;;;;5095184;28;20039;-58
2023/05/26 08:52:28;;;;;;;17.35;11.90;;;20.20;99.90;;;;;;5102475;28;20443;-55
2023/05/26 08:54:55;;;;;;;20.27;12.65;;;20.40;99.90;;;;;;5086461;28;20048;-58
2023/05/26 08:57:22;;;;;;;17.98;11.43;;;20.40;99.90;;;;;;5100623;28;20539;-56
2023/05/26 08:59:52;;;;;;;17.42;12.10;;;20.40;99.90;;;;;;5095766;28;20401;-58
2023/05/26 09:02:18;;;;;;;20.35;12.60;;;20.50;99.90;;;;;;5104648;28;20464;-57
2023/05/26 09:04:46;;;;;;;18.75;12.50;;;20.60;99.90;;;;;;5103069;28;20040;-58
2023/05/26 09:07:13;;;;;;;21.55;13.25;;;20.70;99.90;;;;;;5093780;28;20444;-58
2023/05/26 09:09:42;;;;;;;16.92;11.48;;;20.90;99.90;;;;;;5090721;28;20032;-57
2023/05/26 09:12:10;;;;;;;18.35;12.07;;;21.10;99.90;;;;;;5113945;28;20046;-56
2023/05/26 09:14:39;;;;;;;19.00;12.32;;;21.20;99.90;;;;;;5111995;28;20086;-58
2023/05/26 09:17:09;;;;;;;16.15;11.85;;;21.30;99.90;;;;;;5101182;28;20093;-55
2023/05/26 09:19:36;;;;;;;15.50;11.70;;;21.40;99.90;;;;;;5102003;28;20492;-58
2023/05/26 09:22:08;;;;;;;17.27;11.73;;;21.50;99.90;;;;;;5105301;28;20122;-59
2023/05/26 09:24:47;;;;;;;16.23;11.55;;;21.50;99.90;;;;;;5104220;28;20496;-54
2023/05/26 09:27:23;;;;;;;16.75;12.73;;;21.50;99.90;;;;;;5100696;28;20093;-56
2023/05/26 09:30:00;;;;;;;19.67;12.82;;;21.50;99.90;;;;;;5093533;28;20050;-57
2023/05/26 09:32:28;;;;;;;17.13;12.63;;;21.50;99.90;;;;;;5099211;28;20051;-55
2023/05/26 09:35:00;;;;;;;17.58;12.20;;;21.40;99.90;;;;;;5100351;28;20073;-56
2023/05/26 09:37:28;;;;;;;20.65;13.50;;;21.50;99.90;;;;;;5098169;28;20493;-56
2023/05/26 09:40:14;;;;;;;18.33;14.45;;;21.40;99.90;;;;;;5103802;28;20052;-55
2023/05/26 09:42:52;;;;;;;22.67;14.05;;;21.30;99.90;;;;;;5111163;28;20131;-55
2023/05/26 09:45:18;;;;;;;17.60;11.80;;;21.30;99.90;;;;;;5092372;28;20056;-58
2023/05/26 09:47:50;;;;;;;15.95;12.20;;;21.40;99.90;;;;;;5099709;28;20115;-57
2023/05/26 09:50:17;;;;;;;16.67;11.57;;;21.50;99.90;;;;;;5106171;28;20110;-55
2023/05/26 09:52:45;;;;;;;15.95;11.68;;;21.60;99.90;;;;;;5108823;28;20380;-59
2023/05/26 09:55:12;;;;;;;13.30;10.52;;;21.80;99.90;;;;;;5092373;28;20044;-57
2023/05/26 09:57:40;;;;;;;17.98;11.55;;;21.80;99.90;;;;;;5095949;28;20040;-57
2023/05/26 10:00:09;;;;;;;22.30;11.52;;;21.90;99.90;;;;;;5105474;27;20043;-58
2023/05/26 10:02:37;;;;;;;21.48;10.27;;;21.90;99.90;;;;;;5094876;28;20054;-55
2023/05/26 10:05:05;;;;;;;17.65;10.27;;;21.90;99.90;;;;;;5105036;28;20044;-58
2023/05/26 10:07:33;;;;;;;14.88;9.85;;;21.90;99.90;;;;;;5100886;28;20442;-56
2023/05/26 10:10:01;;;;;;;18.70;9.52;;;22.10;99.90;;;;;;5091083;28;20489;-57
2023/05/26 10:12:30;;;;;;;15.98;8.57;;;22.20;99.90;;;;;;5106953;28;20043;-58
2023/05/26 10:14:58;;;;;;;11.73;8.50;;;22.30;99.90;;;;;;5107661;28;20039;-58
2023/05/26 10:17:26;;;;;;;11.27;8.00;;;22.40;99.90;;;;;;5092391;28;20047;-58
2023/05/26 10:19:56;;;;;;;11.20;8.43;;;22.50;99.90;;;;;;5100663;28;20066;-57
2023/05/26 10:22:45;;;;;;;14.75;7.38;;;22.50;99.90;;;;;;5106725;28;20100;-56
2023/05/26 10:25:35;;;;;;;11.50;7.30;;;22.50;99.90;;;;;;5098554;28;20047;-58
2023/05/26 10:28:38;;;;;;;9.43;7.45;;;22.70;99.90;;;;;;5091410;28;20042;-58
2023/05/26 10:31:04;;;;;;;14.75;7.55;;;22.80;99.90;;;;;;5091668;28;20036;-56
2023/05/26 10:33:39;;;;;;;12.13;7.82;;;22.90;99.90;;;;;;5099514;28;20048;-58
2023/05/26 10:36:08;;;;;;;11.18;7.20;;;23.10;99.90;;;;;;5103397;28;20043;-57
2023/05/26 10:38:46;;;;;;;12.80;8.23;;;23.10;99.90;;;;;;5103560;28;20044;-57
2023/05/26 10:41:31;;;;;;;13.70;8.77;;;23.10;99.90;;;;;;5091305;28;20043;-54
2023/05/26 10:44:02;;;;;;;10.63;8.25;;;23.00;99.90;;;;;;5102284;28;20047;-56
2023/05/26 10:46:37;;;;;;;12.35;8.35;;;23.10;99.90;;;;;;5088507;28;20090;-55
2023/05/26 10:49:17;;;;;;;13.35;8.07;;;23.20;99.90;;;;;;5112115;28;20036;-55
2023/05/26 10:51:54;;;;;;;16.55;11.82;;;23.30;99.90;;;;;;5098461;28;20377;-56
2023/05/26 10:54:24;;;;;;;14.02;10.60;;;23.10;99.90;;;;;;5096771;28;20449;-57
2023/05/26 10:56:53;;;;;;;16.63;10.15;;;23.00;99.90;;;;;;5107846;28;20044;-56
2023/05/26 10:59:33;;;;;;;15.50;10.15;;;22.90;99.90;;;;;;5091708;28;20048;-59
2023/05/26 11:02:05;;;;;;;14.73;10.00;;;22.80;99.90;;;;;;5101333;28;20532;-56
2023/05/26 11:04:43;;;;;;;15.15;11.15;;;22.90;99.90;;;;;;5110746;28;20118;-57
2023/05/26 11:07:16;;;;;;;;;;;22.90;99.90;;;;;;5103584;28;20339;-56
2023/05/26 11:10:03;;;;;;;17.83;11.68;;;22.70;99.90;;;;;;5103361;28;19971;-58
2023/05/26 11:12:34;;;;;;;19.73;12.25;;;22.70;99.90;;;;;;5102775;28;20055;-59
2023/05/26 11:15:30;;;;;;;22.38;11.77;;;22.60;99.90;;;;;;5109107;28;20036;-57
2023/05/26 11:18:00;;;;;;;18.58;10.98;;;22.60;99.90;;;;;;5108172;28;20047;-58
2023/05/26 11:20:27;;;;;;;16.85;11.02;;;22.50;99.90;;;;;;5098417;28;20089;-58
2023/05/26 11:22:56;;;;;;;17.00;10.98;;;22.50;99.90;;;;;;5092632;28;20039;-58
2023/05/26 11:25:22;;;;;;;13.77;10.15;;;22.50;99.90;;;;;;5102397;28;20044;-57
2023/05/26 11:27:50;;;;;;;16.55;10.00;;;22.70;99.90;;;;;;5110878;28;20043;-59
2023/05/26 11:30:20;;;;;;;13.80;9.32;;;22.80;99.90;;;;;;5103427;28;20590;-58
2023/05/26 11:32:51;;;;;;;14.27;9.77;;;22.80;99.90;;;;;;5102493;28;20046;-57
2023/05/26 11:35:26;;;;;;;14.45;9.85;;;23.10;99.90;;;;;;5103849;28;20460;-56
2023/05/26 11:37:54;;;;;;;15.85;8.60;;;23.30;99.90;;;;;;5100619;28;20126;-54
2023/05/26 11:40:21;;;;;;;16.02;9.20;;;23.20;99.90;;;;;;5091088;28;20052;-54
2023/05/26 11:42:55;;;;;;;13.15;9.43;;;23.20;99.90;;;;;;5099614;28;20044;-55
2023/05/26 11:45:25;;;;;;;13.23;9.10;;;23.40;99.90;;;;;;5109312;28;20564;-55
2023/05/26 11:47:52;;;;;;;11.73;8.63;;;23.40;99.90;;;;;;5111248;28;20039;-54
2023/05/26 11:50:18;;;;;;;;;;;23.50;99.90;;;;;;5102268;28;20078;-56
2023/05/26 11:52:49;;;;;;;12.82;8.68;;;23.50;99.90;;;;;;5107493;28;19919;-57
2023/05/26 11:55:19;;;;;;;14.65;9.20;;;23.40;99.90;;;;;;5098670;28;20043;-56
2023/05/26 11:57:47;;;;;;;16.05;9.52;;;23.30;99.90;;;;;;5099096;28;20048;-55
2023/05/26 12:00:17;;;;;;;16.15;8.40;;;23.50;99.90;;;;;;5105574;28;20423;-54
2023/05/26 12:02:46;;;;;;;12.07;8.18;;;23.40;99.90;;;;;;5090775;28;20102;-56
2023/05/26 12:05:29;;;;;;;14.98;8.40;;;23.40;99.90;;;;;;5098861;28;20048;-53
2023/05/26 12:08:07;;;;;;;15.98;8.20;;;23.50;99.90;;;;;;5100599;28;20059;-56
2023/05/26 12:10:36;;;;;;;11.82;7.70;;;23.60;99.90;;;;;;5106635;28;20736;-54
2023/05/26 12:13:02;;;;;;;12.82;8.25;;;23.70;99.90;;;;;;5110649;28;20042;-56
2023/05/26 12:15:29;;;;;;;13.50;8.50;;;23.70;99.90;;;;;;5108906;28;20043;-56
2023/05/26 12:17:57;;;;;;;10.38;7.93;;;23.80;99.90;;;;;;5106097;28;20044;-56
2023/05/26 12:20:25;;;;;;;10.50;7.90;;;23.70;99.90;;;;;;5105215;28;20055;-55
2023/05/26 12:23:11;;;;;;;13.77;7.60;;;23.70;99.90;;;;;;5108324;28;20536;-56
2023/05/26 12:25:38;;;;;;;12.70;7.53;;;23.70;99.90;;;;;;5100242;28;20032;-55
2023/05/26 12:28:05;;;;;;;15.13;7.28;;;23.80;99.90;;;;;;5105521;28;20051;-56
2023/05/26 12:30:33;;;;;;;;;;;24.00;99.90;;;;;;5109846;28;20054;-54
2023/05/26 12:33:15;;;;;;;11.43;7.35;;;24.10;99.90;;;;;;5098179;28;20288;-57
2023/05/26 12:35:42;;;;;;;12.27;8.18;;;24.10;99.90;;;;;;5094302;28;20512;-54
2023/05/26 12:38:12;;;;;;;10.50;7.72;;;24.00;99.90;;;;;;5102201;28;20044;-56
2023/05/26 12:40:39;;;;;;;11.27;7.93;;;24.00;99.90;;;;;;5093826;28;20550;-53
2023/05/26 12:43:06;;;;;;;12.52;8.20;;;23.80;99.90;;;;;;5093580;28;20541;-54
2023/05/26 12:45:34;;;;;;;14.65;8.93;;;23.70;99.90;;;;;;5108297;28;20069;-57
2023/05/26 12:48:01;;;;;;;11.73;7.55;;;23.80;99.90;;;;;;5102708;28;20040;-54